Time;durP1;ratioP1;P1;durP2;ratioP2;P2;SDS_P1;SDS_P2;PMS_P1;PMS_P2;Temp;Humidity;BMP_temperature;BMP_pressure;BME280_temperature;BME280_humidity;BME280_pressure;Samples;Min_cycle;Max_cycle;Signal;HPM_P1;HPM_P2
2022/03/24 00:01:51;;;;;;;34.80;24.77;;;13.60;1.00;;;;;;6187247;23;20513;-82
2022/03/24 00:04:17;;;;;;;40.07;23.83;;;13.60;1.00;;;;;;6186652;23;20167;-82
2022/03/24 00:06:43;;;;;;;34.63;23.30;;;13.40;1.00;;;;;;6187177;23;20561;-82
2022/03/24 00:09:08;;;;;;;35.30;23.73;;;13.10;1.00;;;;;;6192591;23;20149;-82
2022/03/24 00:11:34;;;;;;;35.10;24.20;;;12.90;1.00;;;;;;6194322;23;20158;-81
2022/03/24 00:14:00;;;;;;;31.57;23.53;;;12.70;1.00;;;;;;6195910;23;20446;-83
2022/03/24 00:16:27;;;;;;;32.83;22.90;;;12.90;1.00;;;;;;6190264;23;20528;-82
2022/03/24 00:18:54;;;;;;;35.83;22.70;;;12.70;1.00;;;;;;6191820;23;20135;-83
2022/03/24 00:21:24;;;;;;;33.50;23.37;;;12.70;1.00;;;;;;6193449;23;20180;-83
2022/03/24 00:23:50;;;;;;;32.27;22.90;;;12.70;1.00;;;;;;6195047;23;20131;-81
2022/03/24 00:26:16;;;;;;;39.93;24.60;;;12.70;1.00;;;;;;6205423;23;20588;-83
2022/03/24 00:28:42;;;;;;;34.90;23.53;;;12.80;1.00;;;;;;6204423;23;20151;-82
2022/03/24 00:31:14;;;;;;;33.00;23.77;;;12.70;1.00;;;;;;6199733;23;20153;-81
2022/03/24 00:33:45;;;;;;;31.43;23.73;;;12.70;1.00;;;;;;6192594;23;20139;-80
2022/03/24 00:36:14;;;;;;;34.63;23.90;;;12.80;1.00;;;;;;6195514;23;20139;-81
2022/03/24 00:38:40;;;;;;;32.70;23.70;;;12.80;1.00;;;;;;6193546;23;20130;-80
2022/03/24 00:41:06;;;;;;;37.00;23.83;;;12.70;1.00;;;;;;6187084;23;20205;-82
2022/03/24 00:43:32;;;;;;;31.70;22.40;;;12.50;1.00;;;;;;6187141;23;20130;-82
2022/03/24 00:45:59;;;;;;;32.83;24.33;;;12.50;1.00;;;;;;6186838;23;20185;-82
2022/03/24 00:48:27;;;;;;;33.77;24.20;;;12.40;1.00;;;;;;6186970;23;20130;-82
2022/03/24 00:50:53;;;;;;;32.60;24.00;;;12.30;1.00;;;;;;6160450;23;20215;-80
2022/03/24 00:53:19;;;;;;;33.63;23.57;;;12.30;1.00;;;;;;6160478;23;20241;-81
2022/03/24 00:55:45;;;;;;;32.67;24.23;;;12.30;1.00;;;;;;6186310;23;20523;-81
2022/03/24 00:58:11;;;;;;;33.73;24.07;;;12.30;1.00;;;;;;6186028;23;20224;-80
2022/03/24 01:00:40;;;;;;;33.37;24.17;;;12.30;1.00;;;;;;6186195;23;20181;-78
2022/03/24 01:03:07;;;;;;;36.60;23.50;;;12.20;1.00;;;;;;6160082;23;20205;-81
2022/03/24 01:05:37;;;;;;;34.23;24.73;;;12.10;1.00;;;;;;6187027;23;20197;-80
2022/03/24 01:08:08;;;;;;;32.90;24.30;;;12.10;1.00;;;;;;6186416;23;20134;-80
2022/03/24 01:10:35;;;;;;;37.10;25.37;;;12.10;1.00;;;;;;6160046;23;20762;-81
2022/03/24 01:13:01;;;;;;;38.40;24.50;;;12.00;1.00;;;;;;6159506;23;20504;-80
2022/03/24 01:15:30;;;;;;;33.73;24.63;;;11.90;61.70;;;;;;6185831;23;20139;-81
2022/03/24 01:17:59;;;;;;;32.37;24.13;;;11.90;99.90;;;;;;6159927;23;20174;-83
2022/03/24 01:20:25;;;;;;;43.87;24.43;;;11.70;99.90;;;;;;6186389;23;20193;-82
2022/03/24 01:22:50;;;;;;;36.67;25.27;;;11.60;99.90;;;;;;6186245;23;20646;-80
2022/03/24 01:25:16;;;;;;;35.97;27.43;;;11.70;99.90;;;;;;6186417;23;20145;-81
2022/03/24 01:27:42;;;;;;;43.30;28.10;;;11.50;99.90;;;;;;6186315;23;20570;-80
2022/03/24 01:30:09;;;;;;;41.67;27.80;;;11.50;9.00;;;;;;6186422;23;20157;-80
2022/03/24 01:32:35;;;;;;;43.20;28.73;;;11.40;30.80;;;;;;6196699;23;20138;-80
2022/03/24 01:35:02;;;;;;;43.20;28.43;;;11.40;38.80;;;;;;6196629;23;20563;-79
2022/03/24 01:37:28;;;;;;;41.57;28.47;;;11.20;63.20;;;;;;6194436;23;20138;-82
2022/03/24 01:39:55;;;;;;;38.87;26.50;;;11.30;47.40;;;;;;6190420;23;20172;-81
2022/03/24 01:42:21;;;;;;;40.77;28.73;;;11.40;27.90;;;;;;6186060;23;20165;-81
2022/03/24 01:44:48;;;;;;;38.17;28.13;;;11.40;9.40;;;;;;6185953;23;20513;-83
2022/03/24 01:47:15;;;;;;;39.50;29.00;;;11.40;29.30;;;;;;6186119;23;20225;-79
2022/03/24 01:49:49;;;;;;;40.73;29.00;;;11.40;24.00;;;;;;6185775;23;20134;-82
2022/03/24 01:52:17;;;;;;;37.80;27.57;;;11.30;60.00;;;;;;6185832;23;20130;-82
2022/03/24 01:54:51;;;;;;;36.00;27.03;;;11.30;95.20;;;;;;6159838;23;20156;-81
2022/03/24 01:57:18;;;;;;;35.27;27.30;;;11.50;90.30;;;;;;6185902;23;20137;-81
2022/03/24 01:59:44;;;;;;;40.53;28.07;;;11.40;66.60;;;;;;6187415;23;20570;-83
2022/03/24 02:02:11;;;;;;;35.33;27.57;;;11.40;94.90;;;;;;6186421;23;20181;-82
2022/03/24 02:04:37;;;;;;;43.43;27.13;;;11.40;99.90;;;;;;6186837;23;20165;-79
2022/03/24 02:07:07;;;;;;;42.60;28.00;;;11.30;99.90;;;;;;6186542;23;20142;-79
2022/03/24 02:09:36;;;;;;;41.27;28.57;;;11.40;99.90;;;;;;6159877;23;20149;-80
2022/03/24 02:12:06;;;;;;;36.83;26.67;;;11.40;99.90;;;;;;6187907;23;20218;-83
2022/03/24 02:14:32;;;;;;;40.07;27.13;;;11.30;99.90;;;;;;6186092;23;20187;-82
2022/03/24 02:16:58;;;;;;;35.23;26.90;;;11.20;99.90;;;;;;6159719;23;20158;-80
2022/03/24 02:19:25;;;;;;;37.27;27.93;;;11.30;99.90;;;;;;6159860;23;20137;-82
2022/03/24 02:21:54;;;;;;;41.30;27.93;;;11.20;99.90;;;;;;6186010;23;20177;-82
2022/03/24 02:24:25;;;;;;;37.53;28.03;;;11.50;99.90;;;;;;6185480;23;20189;-81
2022/03/24 02:26:51;;;;;;;38.60;27.47;;;11.30;99.90;;;;;;6160326;23;20587;-82
2022/03/24 02:29:19;;;;;;;35.67;26.50;;;11.20;99.90;;;;;;6188141;23;20154;-82
2022/03/24 02:31:47;;;;;;;37.93;27.20;;;11.20;99.90;;;;;;6176794;23;20157;-80
2022/03/24 02:34:37;;;;;;;38.60;27.20;;;11.20;99.90;;;;;;6199791;23;20209;-82
2022/03/24 02:37:08;;;;;;;38.73;27.57;;;11.20;99.90;;;;;;6190181;23;20130;-82
2022/03/24 02:39:42;;;;;;;37.33;27.70;;;11.10;99.90;;;;;;6195352;23;20133;-81
2022/03/24 02:42:13;;;;;;;40.77;26.77;;;11.10;99.90;;;;;;6190131;23;20173;-80
2022/03/24 02:44:44;;;;;;;37.27;27.77;;;10.90;99.90;;;;;;6194039;23;20140;-79
2022/03/24 02:47:11;;;;;;;36.57;27.10;;;10.80;99.90;;;;;;6179084;23;20146;-78
2022/03/24 02:49:38;;;;;;;40.47;28.53;;;10.70;99.90;;;;;;6207071;23;20161;-80
2022/03/24 02:52:06;;;;;;;36.90;26.77;;;10.70;99.90;;;;;;6188232;23;20141;-79
2022/03/24 02:54:33;;;;;;;40.10;27.60;;;10.70;99.90;;;;;;6185848;23;20590;-81
2022/03/24 02:56:59;;;;;;;37.47;27.63;;;10.70;99.90;;;;;;6185424;23;20280;-81
2022/03/24 02:59:25;;;;;;;35.27;27.47;;;10.60;99.90;;;;;;6186338;23;20157;-80
2022/03/24 03:01:55;;;;;;;34.73;25.67;;;10.60;1.00;;;;;;6186179;23;20182;-80
2022/03/24 03:04:21;;;;;;;40.20;28.00;;;10.50;1.00;;;;;;6186437;23;20169;-80
2022/03/24 03:06:47;;;;;;;39.50;28.07;;;10.60;99.90;;;;;;6185926;23;20138;-79
2022/03/24 03:09:16;;;;;;;35.17;26.60;;;10.70;99.90;;;;;;6185971;23;20196;-81
2022/03/24 03:11:47;;;;;;;46.17;27.30;;;10.70;99.90;;;;;;6185901;23;20602;-81
2022/03/24 03:14:14;;;;;;;39.90;28.07;;;10.50;99.90;;;;;;6158713;23;20240;-81
2022/03/24 03:16:41;;;;;;;38.17;27.50;;;10.60;1.00;;;;;;6185423;23;20145;-80
2022/03/24 03:19:08;;;;;;;46.70;27.43;;;10.50;1.00;;;;;;6159304;23;20185;-80
2022/03/24 03:21:41;;;;;;;37.50;26.90;;;10.50;99.90;;;;;;6185826;23;20220;-81
2022/03/24 03:24:08;;;;;;;38.40;27.10;;;10.50;99.90;;;;;;6185457;23;20200;-78
2022/03/24 03:26:35;;;;;;;37.27;26.87;;;10.40;99.90;;;;;;6134520;23;20196;-80
2022/03/24 03:29:01;;;;;;;36.27;25.77;;;10.40;1.00;;;;;;6158995;23;20185;-81
2022/03/24 03:31:28;;;;;;;40.53;28.60;;;10.40;1.00;;;;;;6185994;23;20149;-80
2022/03/24 03:33:55;;;;;;;39.37;27.37;;;10.30;1.00;;;;;;6185522;23;20169;-81
2022/03/24 03:36:22;;;;;;;38.97;27.43;;;10.30;1.00;;;;;;6185427;23;20216;-82
2022/03/24 03:38:48;;;;;;;44.37;27.00;;;10.40;1.00;;;;;;6185164;23;20130;-82
2022/03/24 03:41:15;;;;;;;34.13;26.73;;;10.30;1.00;;;;;;6187228;23;20201;-82
2022/03/24 03:43:42;;;;;;;38.23;26.90;;;10.10;1.00;;;;;;6187359;23;20505;-81
2022/03/24 03:46:08;;;;;;;42.60;28.03;;;10.10;1.00;;;;;;6187263;23;20575;-82
2022/03/24 03:48:38;;;;;;;37.53;26.90;;;10.10;1.00;;;;;;6160761;23;20158;-81
2022/03/24 03:51:10;;;;;;;35.23;26.50;;;10.20;1.00;;;;;;6187291;23;20134;-81
2022/03/24 03:53:36;;;;;;;40.10;27.83;;;10.20;1.00;;;;;;6187447;23;20559;-81
2022/03/24 03:56:04;;;;;;;34.40;27.27;;;10.20;1.00;;;;;;6187317;23;20138;-82
2022/03/24 03:58:29;;;;;;;40.37;27.33;;;10.20;1.00;;;;;;6186885;23;20150;-82
2022/03/24 04:00:58;;;;;;;39.10;26.63;;;10.20;1.00;;;;;;6187053;23;20181;-81
2022/03/24 04:03:26;;;;;;;39.10;27.33;;;10.10;1.00;;;;;;6186834;23;20161;-82
2022/03/24 04:05:57;;;;;;;39.20;27.37;;;10.00;1.00;;;;;;6187260;23;20174;-81
2022/03/24 04:08:23;;;;;;;34.73;26.30;;;10.00;1.00;;;;;;6187302;23;20144;-81
2022/03/24 04:10:49;;;;;;;38.00;27.70;;;10.00;1.00;;;;;;6187164;23;20161;-81
2022/03/24 04:13:16;;;;;;;37.23;28.23;;;10.00;1.00;;;;;;6186985;23;20166;-81
2022/03/24 04:15:42;;;;;;;36.93;27.00;;;10.00;1.00;;;;;;6187036;23;20142;-80
2022/03/24 04:18:07;;;;;;;41.83;27.20;;;9.90;1.00;;;;;;6187002;23;20711;-82
2022/03/24 04:20:34;;;;;;;39.73;27.67;;;10.00;1.00;;;;;;6187077;23;20170;-82
2022/03/24 04:23:03;;;;;;;37.90;28.03;;;10.10;1.00;;;;;;6187504;23;20149;-83
2022/03/24 04:25:29;;;;;;;36.17;26.87;;;10.10;1.00;;;;;;6188132;23;20440;-82
2022/03/24 04:27:55;;;;;;;37.63;27.30;;;10.00;1.00;;;;;;6192734;23;20184;-81
2022/03/24 04:30:21;;;;;;;39.73;27.90;;;10.10;1.00;;;;;;6193610;23;20265;-81
2022/03/24 04:32:48;;;;;;;40.50;28.30;;;10.10;1.00;;;;;;6197140;23;20142;-80
2022/03/24 04:35:17;;;;;;;39.03;26.63;;;10.10;1.00;;;;;;6186988;23;20161;-80
2022/03/24 04:37:44;;;;;;;39.10;28.43;;;9.80;1.00;;;;;;6187640;23;20169;-80
2022/03/24 04:40:12;;;;;;;41.57;28.73;;;9.60;84.70;;;;;;6186519;23;20138;-82
2022/03/24 04:42:39;;;;;;;35.00;26.70;;;9.70;82.20;;;;;;6187072;23;20146;-80
2022/03/24 04:45:06;;;;;;;38.67;28.00;;;9.70;78.50;;;;;;6187020;23;20162;-81
2022/03/24 04:47:32;;;;;;;39.20;27.10;;;9.50;99.90;;;;;;6162327;23;20177;-80
2022/03/24 04:49:58;;;;;;;39.33;27.73;;;9.50;99.90;;;;;;6196186;23;20134;-78
2022/03/24 04:52:24;;;;;;;37.10;27.90;;;9.60;99.90;;;;;;6209102;23;20125;-81
2022/03/24 04:54:50;;;;;;;45.27;28.93;;;9.70;99.90;;;;;;6190734;23;20541;-82
2022/03/24 04:57:16;;;;;;;39.07;28.30;;;9.90;45.70;;;;;;6186888;23;20138;-82
2022/03/24 04:59:42;;;;;;;40.27;27.90;;;9.80;1.00;;;;;;6187403;23;20186;-82
2022/03/24 05:02:09;;;;;;;37.63;28.30;;;9.90;1.00;;;;;;6186706;23;20212;-81
2022/03/24 05:04:35;;;;;;;38.93;29.00;;;9.80;1.00;;;;;;6186739;23;20166;-81
2022/03/24 05:07:01;;;;;;;42.07;29.00;;;9.70;99.90;;;;;;6176046;23;20157;-78
2022/03/24 05:09:27;;;;;;;41.90;29.87;;;9.70;99.90;;;;;;6206569;22;20146;-79
2022/03/24 05:11:52;;;;;;;36.80;28.63;;;9.70;99.90;;;;;;6190106;23;20169;-81
2022/03/24 05:14:21;;;;;;;48.17;28.50;;;9.80;99.60;;;;;;6186823;23;20156;-81
2022/03/24 05:16:47;;;;;;;39.87;28.37;;;9.80;99.90;;;;;;6186721;23;20142;-81
2022/03/24 05:19:13;;;;;;;36.50;28.10;;;9.80;48.00;;;;;;6186663;23;20212;-81
2022/03/24 05:21:40;;;;;;;37.70;28.60;;;9.80;1.00;;;;;;6186829;23;20180;-80
2022/03/24 05:24:06;;;;;;;40.73;29.03;;;9.80;1.00;;;;;;6186982;23;20161;-83
2022/03/24 05:26:31;;;;;;;36.53;28.30;;;9.80;1.00;;;;;;6186357;23;20145;-82
2022/03/24 05:28:57;;;;;;;46.87;29.07;;;9.80;1.00;;;;;;6185886;23;20154;-82
2022/03/24 05:31:23;;;;;;;39.93;29.00;;;9.90;1.00;;;;;;6185827;23;20579;-81
2022/03/24 05:33:49;;;;;;;36.30;27.67;;;9.90;1.00;;;;;;6186095;23;20154;-83
2022/03/24 05:36:15;;;;;;;42.70;28.30;;;9.90;1.00;;;;;;6186718;23;20621;-81
2022/03/24 05:38:41;;;;;;;37.77;29.30;;;9.90;1.00;;;;;;6186293;23;20134;-81
2022/03/24 05:41:13;;;;;;;37.07;28.03;;;9.80;1.00;;;;;;6186223;23;20559;-80
2022/03/24 05:43:39;;;;;;;37.23;28.90;;;9.80;1.00;;;;;;6186144;23;20137;-81
2022/03/24 05:46:06;;;;;;;37.27;27.30;;;9.80;1.00;;;;;;6185860;23;20575;-82
2022/03/24 05:48:33;;;;;;;39.27;28.20;;;9.80;1.00;;;;;;6186085;23;20134;-82
2022/03/24 05:51:00;;;;;;;42.33;29.10;;;9.90;1.00;;;;;;6185904;23;20146;-80
2022/03/24 05:53:25;;;;;;;38.27;27.67;;;10.00;1.00;;;;;;6186915;23;20212;-82
2022/03/24 05:55:52;;;;;;;39.17;29.83;;;10.10;1.00;;;;;;6185778;23;20587;-81
2022/03/24 05:58:18;;;;;;;40.37;29.70;;;10.10;1.00;;;;;;6185877;23;20579;-80
2022/03/24 06:00:44;;;;;;;43.27;29.87;;;10.10;1.00;;;;;;6159517;23;20183;-82
2022/03/24 06:03:10;;;;;;;43.00;29.47;;;10.10;1.00;;;;;;6185859;23;20203;-82
2022/03/24 06:05:40;;;;;;;43.77;28.53;;;10.20;1.00;;;;;;6185774;23;20921;-82
2022/03/24 06:08:07;;;;;;;44.97;30.57;;;10.10;1.00;;;;;;6186545;23;20134;-82
2022/03/24 06:10:33;;;;;;;43.33;29.53;;;10.20;1.00;;;;;;6186049;23;20145;-78
2022/03/24 06:12:59;;;;;;;43.87;28.17;;;10.20;1.00;;;;;;6187581;23;20162;-82
2022/03/24 06:15:25;;;;;;;41.17;29.40;;;10.30;1.00;;;;;;6200340;23;20168;-79
2022/03/24 06:17:51;;;;;;;42.87;30.20;;;10.40;1.00;;;;;;6206873;23;20134;-79
2022/03/24 06:20:17;;;;;;;44.37;29.60;;;10.40;99.90;;;;;;6206854;23;20141;-79
2022/03/24 06:22:50;;;;;;;43.00;29.13;;;10.50;99.90;;;;;;6202883;23;20201;-82
2022/03/24 06:25:16;;;;;;;47.33;29.80;;;10.60;99.90;;;;;;6179638;23;20150;-80
2022/03/24 06:27:42;;;;;;;40.73;28.13;;;10.70;99.90;;;;;;6205565;23;20138;-79
2022/03/24 06:30:08;;;;;;;46.07;28.77;;;10.70;99.90;;;;;;6202839;23;20134;-82
2022/03/24 06:32:34;;;;;;;43.30;29.30;;;10.80;99.90;;;;;;6203814;23;20237;-82
2022/03/24 06:35:03;;;;;;;41.90;28.83;;;11.10;99.90;;;;;;6199011;23;20134;-81
2022/03/24 06:37:29;;;;;;;46.33;29.50;;;11.00;99.90;;;;;;6204274;23;20125;-78
2022/03/24 06:39:55;;;;;;;42.07;30.60;;;11.00;99.90;;;;;;6207256;23;20426;-80
2022/03/24 06:42:23;;;;;;;47.23;29.37;;;11.10;99.90;;;;;;6207928;23;20173;-80
2022/03/24 06:44:49;;;;;;;41.87;30.67;;;11.20;99.90;;;;;;6204496;23;20133;-80
2022/03/24 06:47:15;;;;;;;54.63;32.00;;;11.20;99.90;;;;;;6204429;23;20136;-81
2022/03/24 06:49:41;;;;;;;44.80;32.17;;;11.20;99.90;;;;;;6203190;23;20152;-78
2022/03/24 06:52:07;;;;;;;48.37;31.60;;;11.30;99.90;;;;;;6206170;23;20130;-79
2022/03/24 06:54:33;;;;;;;48.23;32.53;;;11.40;99.90;;;;;;6177653;23;20575;-81
2022/03/24 06:56:58;;;;;;;47.53;33.30;;;11.50;99.90;;;;;;6187295;23;20219;-80
2022/03/24 06:59:24;;;;;;;49.23;31.90;;;11.50;99.90;;;;;;6201850;23;20220;-80
2022/03/24 07:01:50;;;;;;;51.80;32.93;;;11.60;96.40;;;;;;6163940;23;20232;-81
2022/03/24 07:04:16;;;;;;;49.07;31.50;;;11.70;52.10;;;;;;6188553;23;20169;-82
2022/03/24 07:06:42;;;;;;;49.40;32.70;;;11.80;21.70;;;;;;6185648;23;20170;-81
2022/03/24 07:09:09;;;;;;;50.63;34.47;;;11.80;1.00;;;;;;6177983;23;20137;-76
2022/03/24 07:11:34;;;;;;;46.67;34.17;;;11.90;1.00;;;;;;6202000;23;20184;-81
2022/03/24 07:14:03;;;;;;;57.73;35.70;;;12.00;1.00;;;;;;6198115;23;20134;-80
2022/03/24 07:16:32;;;;;;;53.43;34.77;;;12.10;1.00;;;;;;6190644;23;20138;-80
2022/03/24 07:18:57;;;;;;;51.33;34.50;;;12.30;1.00;;;;;;6194621;23;20153;-78
2022/03/24 07:21:25;;;;;;;51.17;35.57;;;12.40;1.00;;;;;;6200153;23;20625;-79
2022/03/24 07:23:53;;;;;;;62.97;35.73;;;12.50;1.00;;;;;;6203575;23;20182;-78
2022/03/24 07:26:21;;;;;;;51.97;36.43;;;12.50;1.00;;;;;;6202522;23;20588;-83
2022/03/24 07:28:48;;;;;;;64.00;38.60;;;12.60;1.00;;;;;;6192668;23;20180;-81
2022/03/24 07:31:19;;;;;;;53.53;36.93;;;12.60;1.00;;;;;;6193969;23;20150;-82
2022/03/24 07:33:45;;;;;;;56.67;37.60;;;12.70;1.00;;;;;;6203893;23;20130;-84
2022/03/24 07:36:13;;;;;;;57.53;39.20;;;12.80;1.00;;;;;;6188700;23;20191;-84
2022/03/24 07:38:39;;;;;;;60.50;40.07;;;12.90;1.00;;;;;;6187449;23;20135;-84
2022/03/24 07:41:06;;;;;;;57.27;39.73;;;13.10;1.00;;;;;;6188336;23;20260;-83
2022/03/24 07:43:33;;;;;;;58.93;42.70;;;13.30;1.00;;;;;;6187845;23;20131;-84
2022/03/24 07:45:59;;;;;;;72.50;44.07;;;13.50;1.00;;;;;;6187914;23;20563;-82
2022/03/24 07:48:25;;;;;;;59.93;41.40;;;13.60;1.00;;;;;;6188659;23;20141;-76
2022/03/24 07:50:55;;;;;;;60.77;43.13;;;13.80;1.00;;;;;;6162003;23;20159;-82
2022/03/24 07:53:59;;;;;;;62.67;43.60;;;13.90;1.00;;;;;;6188139;23;20201;-83
2022/03/24 07:56:25;;;;;;;72.33;43.53;;;14.00;1.00;;;;;;6182366;23;20163;-78
2022/03/24 07:58:56;;;;;;;64.47;45.20;;;14.10;1.00;;;;;;6187278;23;20165;-83
2022/03/24 08:01:27;;;;;;;65.80;45.97;;;14.00;1.00;;;;;;6187757;23;20169;-83
2022/03/24 08:03:55;;;;;;;62.77;46.13;;;14.10;1.00;;;;;;6187536;23;20170;-84
2022/03/24 08:06:21;;;;;;;65.77;42.20;;;14.10;1.00;;;;;;6187852;23;20145;-82
2022/03/24 08:08:47;;;;;;;62.77;41.67;;;14.40;1.00;;;;;;6187830;23;20198;-80
2022/03/24 08:11:13;;;;;;;58.77;41.00;;;14.50;1.00;;;;;;6161671;23;20547;-82
2022/03/24 08:13:39;;;;;;;64.13;43.07;;;14.50;1.00;;;;;;6189502;23;20169;-77
2022/03/24 08:16:06;;;;;;;62.00;43.30;;;14.50;1.00;;;;;;6192503;23;20138;-84
2022/03/24 08:18:32;;;;;;;69.33;44.33;;;14.50;1.00;;;;;;6200607;23;20159;-76
2022/03/24 08:20:58;;;;;;;69.17;44.03;;;14.40;1.00;;;;;;6192888;23;20192;-83
2022/03/24 08:23:24;;;;;;;70.37;46.53;;;14.60;1.00;;;;;;6188300;23;20138;-83
2022/03/24 08:25:55;;;;;;;66.70;48.20;;;14.70;1.00;;;;;;6186568;23;20218;-82
2022/03/24 08:28:21;;;;;;;70.47;46.87;;;14.70;1.00;;;;;;6187033;23;20157;-81
2022/03/24 08:30:46;;;;;;;71.97;47.80;;;14.80;1.00;;;;;;6187656;23;20161;-84
2022/03/24 08:33:13;;;;;;;68.50;47.03;;;14.90;1.00;;;;;;6188058;23;20225;-83
2022/03/24 08:35:40;;;;;;;66.93;47.23;;;15.10;1.00;;;;;;6160349;23;20233;-82
2022/03/24 08:38:07;;;;;;;69.90;48.43;;;15.10;1.00;;;;;;6187833;23;20177;-82
2022/03/24 08:40:33;;;;;;;70.13;49.80;;;15.10;99.90;;;;;;6187125;23;20177;-78
2022/03/24 08:42:59;;;;;;;67.97;48.40;;;15.30;99.90;;;;;;6186986;23;20134;-83
2022/03/24 08:45:25;;;;;;;66.23;46.90;;;15.30;99.90;;;;;;6187681;23;20138;-82
2022/03/24 08:47:51;;;;;;;69.50;47.60;;;15.40;99.90;;;;;;6191144;23;20263;-81
2022/03/24 08:50:17;;;;;;;71.50;49.90;;;15.60;99.90;;;;;;6195714;23;20145;-78
2022/03/24 08:52:43;;;;;;;65.93;46.80;;;15.80;99.90;;;;;;6201073;23;20209;-79
2022/03/24 08:55:13;;;;;;;67.87;49.10;;;15.60;99.90;;;;;;6195801;23;20137;-84
2022/03/24 08:57:39;;;;;;;67.97;48.03;;;15.70;99.90;;;;;;6188324;23;20155;-83
2022/03/24 09:00:12;;;;;;;65.27;47.30;;;15.90;99.90;;;;;;6161130;23;20474;-83
2022/03/24 09:02:41;;;;;;;70.70;49.40;;;16.10;99.90;;;;;;6187823;23;20231;-83
2022/03/24 09:05:08;;;;;;;67.33;47.53;;;16.40;99.90;;;;;;6204054;23;20130;-77
2022/03/24 09:07:34;;;;;;;63.67;46.37;;;16.60;99.90;;;;;;6194597;23;20145;-82
2022/03/24 09:10:00;;;;;;;66.33;48.73;;;16.50;99.90;;;;;;6188120;23;20477;-78
2022/03/24 09:12:25;;;;;;;75.00;48.60;;;16.40;99.90;;;;;;6187343;23;20212;-82
2022/03/24 09:14:51;;;;;;;62.73;47.37;;;16.40;99.90;;;;;;6190376;23;20134;-83
2022/03/24 09:17:18;;;;;;;66.03;46.90;;;16.50;99.90;;;;;;6204416;23;20195;-81
2022/03/24 09:19:43;;;;;;;68.30;47.87;;;16.70;99.90;;;;;;6194449;23;20601;-83
2022/03/24 09:22:29;;;;;;;68.90;47.83;;;17.00;99.90;;;;;;6188476;23;20171;-82
2022/03/24 09:24:56;;;;;;;66.70;47.03;;;17.10;99.90;;;;;;6160803;23;20155;-81
2022/03/24 09:27:22;;;;;;;63.70;45.40;;;17.10;99.90;;;;;;6187462;23;20500;-81
2022/03/24 09:29:49;;;;;;;64.30;48.07;;;17.30;99.90;;;;;;6188109;23;20154;-83
2022/03/24 09:32:16;;;;;;;67.37;47.00;;;17.20;99.90;;;;;;6187552;23;20126;-77
2022/03/24 09:34:43;;;;;;;57.30;42.37;;;17.20;99.90;;;;;;6188179;23;20576;-81
2022/03/24 09:37:09;;;;;;;59.17;40.97;;;17.00;99.90;;;;;;6160146;23;20229;-83
2022/03/24 09:39:35;;;;;;;55.90;40.50;;;17.00;99.90;;;;;;6187212;23;20505;-77
2022/03/24 09:42:01;;;;;;;51.30;37.20;;;17.20;99.90;;;;;;6192136;23;20194;-83
2022/03/24 09:44:27;;;;;;;52.67;37.47;;;17.10;99.90;;;;;;6167943;23;20142;-81
2022/03/24 09:46:53;;;;;;;43.17;30.27;;;16.90;99.90;;;;;;6187316;23;20145;-81
2022/03/24 09:49:18;;;;;;;43.37;32.90;;;16.80;99.90;;;;;;6187649;23;20599;-82
2022/03/24 09:51:44;;;;;;;36.67;24.57;;;16.80;99.90;;;;;;6187222;23;20181;-83
2022/03/24 09:54:11;;;;;;;32.70;25.43;;;16.80;99.90;;;;;;6187075;23;20138;-83
2022/03/24 09:56:38;;;;;;;32.83;24.50;;;16.70;99.90;;;;;;6161499;23;20157;-82
2022/03/24 09:59:07;;;;;;;33.40;24.43;;;16.70;99.90;;;;;;6187996;23;20150;-82
2022/03/24 10:01:32;;;;;;;40.27;24.27;;;16.80;99.90;;;;;;6186943;23;20173;-84
2022/03/24 10:04:09;;;;;;;33.30;25.20;;;16.80;99.90;;;;;;6187550;23;20622;-83
2022/03/24 10:06:39;;;;;;;30.00;22.03;;;17.00;99.90;;;;;;6160444;23;20157;-81
2022/03/24 10:09:05;;;;;;;37.30;25.20;;;17.00;99.90;;;;;;6186698;23;20138;-81
2022/03/24 10:11:31;;;;;;;31.27;22.70;;;17.10;99.90;;;;;;6186218;23;20138;-82
2022/03/24 10:13:58;;;;;;;36.37;26.60;;;17.20;99.90;;;;;;6186969;23;20639;-82
2022/03/24 10:16:34;;;;;;;33.67;24.47;;;17.30;99.90;;;;;;6186670;23;20138;-83
2022/03/24 10:19:07;;;;;;;35.70;25.03;;;17.20;99.90;;;;;;6186434;23;20152;-82
2022/03/24 10:21:36;;;;;;;36.60;24.97;;;17.20;99.90;;;;;;6186276;23;20217;-83
2022/03/24 10:24:13;;;;;;;36.30;25.20;;;17.20;99.90;;;;;;6159827;23;20149;-83
2022/03/24 10:26:40;;;;;;;35.23;25.40;;;17.20;99.90;;;;;;6186317;23;20217;-83
2022/03/24 10:29:06;;;;;;;37.23;24.77;;;17.10;99.90;;;;;;6198818;23;20177;-76
2022/03/24 10:31:37;;;;;;;34.03;24.80;;;17.10;99.90;;;;;;6204095;23;20137;-82
2022/03/24 10:34:03;;;;;;;36.03;26.90;;;17.10;99.90;;;;;;6187408;23;20138;-83
2022/03/24 10:36:31;;;;;;;36.90;25.87;;;17.20;99.90;;;;;;6186391;23;20185;-81
2022/03/24 10:39:04;;;;;;;32.93;24.17;;;17.30;99.90;;;;;;6187701;23;20134;-83
2022/03/24 10:41:35;;;;;;;33.20;24.80;;;17.20;99.90;;;;;;6200581;23;20212;-78
2022/03/24 10:44:12;;;;;;;33.70;25.43;;;17.20;99.90;;;;;;6195055;23;20195;-82
2022/03/24 10:46:41;;;;;;;38.63;28.07;;;17.30;99.90;;;;;;6190209;23;20232;-81
2022/03/24 10:49:15;;;;;;;37.73;26.27;;;17.30;99.90;;;;;;6201239;23;20134;-77
2022/03/24 10:51:44;;;;;;;35.10;26.07;;;17.20;99.90;;;;;;6204395;23;20138;-82
2022/03/24 10:54:20;;;;;;;35.67;26.77;;;17.30;99.90;;;;;;6204206;23;20138;-83
2022/03/24 10:57:15;;;;;;;33.23;24.20;;;17.50;99.90;;;;;;6198767;23;20141;-82
2022/03/24 10:59:47;;;;;;;38.20;27.10;;;17.50;99.90;;;;;;6190540;23;20149;-81
2022/03/24 11:02:15;;;;;;;37.60;28.40;;;17.50;99.90;;;;;;6206797;23;20228;-82
2022/03/24 11:04:43;;;;;;;39.43;28.73;;;17.40;99.90;;;;;;6191161;23;20169;-77
2022/03/24 11:07:09;;;;;;;33.03;27.00;;;17.40;99.90;;;;;;6187830;23;20138;-82
2022/03/24 11:09:35;;;;;;;29.87;23.27;;;17.30;99.90;;;;;;6188237;23;20138;-81
2022/03/24 11:12:27;;;;;;;33.07;25.30;;;17.40;99.90;;;;;;6188176;23;20165;-80
2022/03/24 11:14:56;;;;;;;31.53;23.20;;;17.60;99.90;;;;;;6187715;23;20174;-80
2022/03/24 11:17:27;;;;;;;33.47;26.17;;;17.80;99.90;;;;;;6187836;23;20130;-83
2022/03/24 11:20:07;;;;;;;39.57;28.57;;;17.80;99.90;;;;;;6188802;23;20205;-83
2022/03/24 11:22:43;;;;;;;40.67;28.93;;;17.70;99.90;;;;;;6187697;23;20266;-78
2022/03/24 11:25:10;;;;;;;38.40;29.10;;;17.80;99.90;;;;;;6189503;23;20216;-79
2022/03/24 11:27:36;;;;;;;40.73;30.70;;;18.00;99.90;;;;;;6189634;23;20134;-82
2022/03/24 11:30:05;;;;;;;27.77;23.67;;;18.20;99.90;;;;;;6188312;23;20148;-83
2022/03/24 11:32:35;;;;;;;30.83;21.77;;;18.20;99.90;;;;;;6187791;23;20138;-80
2022/03/24 11:35:02;;;;;;;32.27;24.77;;;18.10;99.90;;;;;;6187395;23;20172;-80
2022/03/24 11:37:28;;;;;;;30.20;25.40;;;18.20;99.90;;;;;;6187143;23;20209;-83
2022/03/24 11:40:11;;;;;;;31.63;24.77;;;18.30;99.90;;;;;;6162171;23;20583;-81
2022/03/24 11:42:42;;;;;;;36.43;27.80;;;18.40;99.90;;;;;;6192357;23;20252;-81
2022/03/24 11:45:32;;;;;;;33.97;26.90;;;18.30;99.90;;;;;;6200367;23;20311;-82
2022/03/24 11:48:05;;;;;;;36.37;27.50;;;17.90;99.90;;;;;;6199408;23;20151;-80
2022/03/24 11:50:42;;;;;;;34.50;27.27;;;17.80;99.90;;;;;;6192902;23;20217;-83
2022/03/24 11:53:16;;;;;;;33.50;26.47;;;17.80;99.90;;;;;;6189144;23;20148;-83
2022/03/24 11:55:58;;;;;;;35.40;28.70;;;17.90;99.90;;;;;;6161837;23;20158;-81
2022/03/24 11:58:29;;;;;;;42.23;32.23;;;18.00;99.90;;;;;;6187729;23;20231;-84
2022/03/24 12:00:55;;;;;;;38.47;30.40;;;18.20;99.90;;;;;;6160824;23;20174;-81
2022/03/24 12:03:43;;;;;;;47.13;32.17;;;18.20;99.90;;;;;;6187518;23;20199;-82
2022/03/24 12:06:11;;;;;;;41.67;31.50;;;18.30;99.90;;;;;;6195695;23;20137;-83
2022/03/24 12:08:52;;;;;;;43.50;31.40;;;18.50;99.90;;;;;;6199249;23;20150;-84
2022/03/24 12:11:36;;;;;;;47.00;32.63;;;18.40;99.90;;;;;;6187513;23;20221;-81
2022/03/24 12:14:04;;;;;;;41.40;32.47;;;18.40;99.90;;;;;;6187441;23;20200;-82
2022/03/24 12:16:31;;;;;;;45.20;33.87;;;18.40;99.90;;;;;;6188362;23;20137;-79
2022/03/24 12:18:58;;;;;;;48.43;33.40;;;18.30;99.90;;;;;;6187575;23;20648;-84
2022/03/24 12:21:25;;;;;;;47.53;33.53;;;18.20;99.90;;;;;;6187529;23;20172;-83
2022/03/24 12:24:27;;;;;;;42.90;30.73;;;18.20;99.90;;;;;;6187887;23;20137;-84
2022/03/24 12:26:56;;;;;;;39.83;31.00;;;18.10;99.90;;;;;;6167436;23;20160;-83
2022/03/24 12:29:23;;;;;;;39.33;30.47;;;18.30;99.90;;;;;;6188959;23;20175;-81
2022/03/24 12:32:11;;;;;;;41.90;31.07;;;18.50;99.90;;;;;;6193778;23;20142;-80
2022/03/24 12:34:40;;;;;;;39.20;29.10;;;18.40;99.90;;;;;;6208142;23;20146;-80
2022/03/24 12:37:29;;;;;;;41.13;30.43;;;18.60;99.90;;;;;;6205395;23;20131;-79
2022/03/24 12:40:09;;;;;;;37.00;28.77;;;18.50;99.90;;;;;;6204171;23;20134;-79